createdAt,value
2017-03-20T00:00:22.053Z,997.7
2017-03-20T00:02:22.095Z,997.85
2017-03-20T00:03:22.115Z,997.79
2017-03-20T00:04:22.136Z,997.71
2017-03-20T00:05:22.157Z,997.83
2017-03-20T00:06:22.178Z,998.09
2017-03-20T00:07:22.196Z,997.9
2017-03-20T00:08:22.218Z,997.87
2017-03-20T00:09:22.239Z,997.83
2017-03-20T00:10:22.259Z,997.87
2017-03-20T00:11:22.279Z,997.93
2017-03-20T00:12:22.300Z,997.93
2017-03-20T00:13:22.321Z,997.96
2017-03-20T00:14:22.341Z,997.94
2017-03-20T00:15:22.361Z,997.89
2017-03-20T00:16:22.383Z,997.97
2017-03-20T00:17:22.402Z,998.08
2017-03-20T00:18:22.423Z,998
2017-03-20T00:19:22.443Z,998.02
2017-03-20T00:20:22.464Z,998.01
2017-03-20T00:21:22.484Z,998.01
2017-03-20T00:22:22.504Z,998.1
2017-03-20T00:23:22.525Z,998.04
2017-03-20T00:24:22.581Z,998.07
2017-03-20T00:25:22.565Z,998.11
2017-03-20T00:26:22.587Z,998.06
2017-03-20T00:27:22.607Z,998.1
2017-03-20T00:28:22.628Z,998.06
2017-03-20T00:29:22.648Z,998.02
2017-03-20T00:30:22.669Z,998.06
2017-03-20T00:31:22.690Z,998.04
2017-03-20T00:32:22.710Z,998
2017-03-20T00:34:22.751Z,998.09
2017-03-20T00:35:22.770Z,998.13
2017-03-20T00:36:22.791Z,998.19
2017-03-20T00:37:22.812Z,998.06
2017-03-20T00:38:22.833Z,998.16
2017-03-20T00:39:22.853Z,998.11
2017-03-20T00:40:22.873Z,998.16
2017-03-20T00:41:22.922Z,998.12
2017-03-20T00:42:22.914Z,998.11
2017-03-20T00:43:22.935Z,998.14
2017-03-20T00:44:22.956Z,998.21
2017-03-20T00:45:22.976Z,998.18
2017-03-20T00:46:22.997Z,998.16
2017-03-20T00:47:23.017Z,998.23
2017-03-20T00:48:23.037Z,998.17
2017-03-20T00:50:23.079Z,998.23
2017-03-20T00:51:23.099Z,998.23
2017-03-20T00:52:23.120Z,998.24
2017-03-20T00:53:23.140Z,998.26
2017-03-20T00:54:23.163Z,998.22
2017-03-20T00:55:23.181Z,998.22
2017-03-20T00:56:23.201Z,998.19
2017-03-20T00:57:23.222Z,998.29
2017-03-20T00:58:23.243Z,998.23
2017-03-20T00:59:23.264Z,998.29
2017-03-20T01:00:23.285Z,998.31
2017-03-20T01:01:23.305Z,998.24
2017-03-20T01:02:23.325Z,998.3
2017-03-20T01:03:23.346Z,998.35
2017-03-20T01:04:23.372Z,998.35
2017-03-20T01:06:23.407Z,998.35
2017-03-20T01:07:23.428Z,998.35
2017-03-20T01:08:23.449Z,998.39
2017-03-20T01:09:23.469Z,998.39
2017-03-20T01:10:23.521Z,998.38
2017-03-20T01:11:23.511Z,998.39
2017-03-20T01:12:23.532Z,998.4
2017-03-20T01:13:23.552Z,998.28
2017-03-20T01:14:23.573Z,998.39
2017-03-20T01:15:23.593Z,998.34
2017-03-20T01:16:23.613Z,998.33
2017-03-20T01:17:23.633Z,998.35
2017-03-20T01:18:23.655Z,998.42
2017-03-20T01:19:23.676Z,998.38
2017-03-20T01:20:23.696Z,998.42
2017-03-20T01:22:23.737Z,998.42
2017-03-20T01:23:23.758Z,998.43
2017-03-20T01:24:23.778Z,998.37
2017-03-20T01:25:23.799Z,998.38
2017-03-20T01:26:23.821Z,998.41
2017-03-20T01:27:23.840Z,998.31
2017-03-20T01:28:23.859Z,998.4
2017-03-20T01:29:23.881Z,998.4
2017-03-20T01:30:23.902Z,998.38
2017-03-20T01:31:23.921Z,998.35
2017-03-20T01:32:23.943Z,998.34
2017-03-20T01:33:23.964Z,998.4
2017-03-20T01:34:23.984Z,998.42
2017-03-20T01:35:24.006Z,998.43
2017-03-20T01:37:24.047Z,998.41
2017-03-20T01:38:24.067Z,998.45
2017-03-20T01:39:24.087Z,998.46
2017-03-20T01:40:24.108Z,998.5
2017-03-20T01:41:24.129Z,998.46
2017-03-20T01:42:24.149Z,998.56
2017-03-20T01:43:24.175Z,998.53
2017-03-20T01:44:24.191Z,998.49
2017-03-20T01:45:24.211Z,998.54
2017-03-20T01:46:24.231Z,998.51
2017-03-20T01:47:24.252Z,998.59
2017-03-20T01:48:24.272Z,998.57
2017-03-20T01:49:24.293Z,998.55
2017-03-20T01:50:24.313Z,998.67
2017-03-20T01:51:24.333Z,998.55
2017-03-20T01:52:24.355Z,998.47
2017-03-20T01:53:24.375Z,998.57
2017-03-20T01:54:24.395Z,998.66
2017-03-20T01:55:24.416Z,998.67
2017-03-20T01:56:24.436Z,998.6
2017-03-20T01:57:24.457Z,998.59
2017-03-20T01:58:24.479Z,998.57
2017-03-20T01:59:24.500Z,998.65
2017-03-20T02:00:24.519Z,998.63
2017-03-20T02:01:24.541Z,998.62
2017-03-20T02:02:24.562Z,998.65
2017-03-20T02:03:24.582Z,998.59
2017-03-20T02:04:24.601Z,998.56
2017-03-20T02:05:24.623Z,998.64
2017-03-20T02:06:24.646Z,998.65
2017-03-20T02:07:24.664Z,998.67
2017-03-20T02:09:24.705Z,998.68
2017-03-20T02:10:24.726Z,998.63
2017-03-20T02:11:24.746Z,998.62
2017-03-20T02:12:24.767Z,998.63
2017-03-20T02:13:24.789Z,998.68
2017-03-20T02:14:24.810Z,998.77
2017-03-20T02:15:24.829Z,998.68
2017-03-20T02:16:24.851Z,998.65
2017-03-20T02:17:24.871Z,998.65
2017-03-20T02:18:24.891Z,998.67
2017-03-20T02:19:24.912Z,998.71
2017-03-20T02:20:24.933Z,998.75
2017-03-20T02:21:24.956Z,998.65
2017-03-20T02:22:24.974Z,998.64
2017-03-20T02:23:24.997Z,998.54
2017-03-20T02:25:25.037Z,998.59
2017-03-20T02:26:25.057Z,998.69
2017-03-20T02:27:25.077Z,998.79
2017-03-20T02:28:25.099Z,998.7
2017-03-20T02:29:25.118Z,998.76
2017-03-20T02:30:25.139Z,998.69
2017-03-20T02:31:25.160Z,998.68
2017-03-20T02:32:25.182Z,998.66
2017-03-20T02:33:25.201Z,998.69
2017-03-20T02:34:25.223Z,998.69
2017-03-20T02:35:25.244Z,998.74
2017-03-20T02:36:25.265Z,998.75
2017-03-20T02:37:25.285Z,998.72
2017-03-20T02:38:25.306Z,998.83
2017-03-20T02:39:25.327Z,998.76
2017-03-20T02:41:25.367Z,998.82
2017-03-20T02:42:25.389Z,998.87
2017-03-20T02:43:25.410Z,998.9
2017-03-20T02:44:25.429Z,998.88
2017-03-20T02:45:25.451Z,998.85
2017-03-20T02:46:25.472Z,998.87
2017-03-20T02:47:25.492Z,998.89
2017-03-20T02:48:25.514Z,998.9
2017-03-20T02:49:25.534Z,998.96
2017-03-20T02:50:25.554Z,998.98
2017-03-20T02:51:25.574Z,998.94
2017-03-20T02:52:25.596Z,998.94
2017-03-20T02:53:25.633Z,998.99
2017-03-20T02:54:25.638Z,998.95
2017-03-20T02:55:25.657Z,999.07
2017-03-20T02:57:25.699Z,999.05
2017-03-20T02:58:25.721Z,999.07
2017-03-20T02:59:25.741Z,999.08
2017-03-20T03:00:25.762Z,999.09
2017-03-20T03:01:25.782Z,999.14
2017-03-20T03:02:25.802Z,999.15
2017-03-20T03:03:25.824Z,999.14
2017-03-20T03:04:25.845Z,999.13
2017-03-20T03:05:25.865Z,999.19
2017-03-20T03:06:25.885Z,999.17
2017-03-20T03:07:25.906Z,999.19
2017-03-20T03:08:25.928Z,999.22
2017-03-20T03:09:25.949Z,999.21
2017-03-20T03:10:25.969Z,999.17
2017-03-20T03:12:26.012Z,999.17
2017-03-20T03:13:26.032Z,999.2
2017-03-20T03:14:26.053Z,999.12
2017-03-20T03:15:26.074Z,999.2
2017-03-20T03:16:26.094Z,999.24
2017-03-20T03:17:26.115Z,999.38
2017-03-20T03:18:26.136Z,999.35
2017-03-20T03:19:26.157Z,999.35
2017-03-20T03:20:26.176Z,999.35
2017-03-20T03:21:26.197Z,999.38
2017-03-20T03:22:26.219Z,999.49
2017-03-20T03:23:26.239Z,999.45
2017-03-20T03:24:26.260Z,999.5
2017-03-20T03:25:26.280Z,999.5
2017-03-20T03:26:26.302Z,999.48
2017-03-20T03:27:26.322Z,999.52
2017-03-20T03:28:26.343Z,999.56
2017-03-20T03:29:26.363Z,999.52
2017-03-20T03:30:26.383Z,999.54
2017-03-20T03:31:26.404Z,999.58
2017-03-20T03:32:26.426Z,999.54
2017-03-20T03:33:26.448Z,999.58
2017-03-20T03:34:26.468Z,999.65
2017-03-20T03:35:26.487Z,999.59
2017-03-20T03:36:26.508Z,999.66
2017-03-20T03:37:26.530Z,999.65
2017-03-20T03:38:26.551Z,999.65
2017-03-20T03:39:26.570Z,999.69
2017-03-20T03:40:26.591Z,999.65
2017-03-20T03:41:26.613Z,999.68
2017-03-20T03:42:26.633Z,999.73
2017-03-20T03:44:26.674Z,999.69
2017-03-20T03:45:26.697Z,999.72
2017-03-20T03:46:26.715Z,999.78
2017-03-20T03:47:26.736Z,999.76
2017-03-20T03:48:26.757Z,999.76
2017-03-20T03:49:26.778Z,999.76
2017-03-20T03:50:26.797Z,999.79
2017-03-20T03:51:26.819Z,999.83
2017-03-20T03:52:26.840Z,999.8
2017-03-20T03:53:26.860Z,999.83
2017-03-20T03:54:26.881Z,999.78
2017-03-20T03:55:26.902Z,999.8
2017-03-20T03:56:26.922Z,999.77
2017-03-20T03:57:26.943Z,999.84
2017-03-20T03:58:26.962Z,999.81
2017-03-20T04:00:27.004Z,999.83
2017-03-20T04:01:27.026Z,999.87
2017-03-20T04:02:27.046Z,999.85
2017-03-20T04:03:27.068Z,999.89
2017-03-20T04:04:27.088Z,999.94
2017-03-20T04:05:27.107Z,999.93
2017-03-20T04:06:27.129Z,999.95
2017-03-20T04:07:27.152Z,999.94
2017-03-20T04:08:27.171Z,1000.05
2017-03-20T04:09:27.191Z,1000
2017-03-20T04:10:27.212Z,999.97
2017-03-20T04:11:27.232Z,999.99
2017-03-20T04:12:27.253Z,1000.01
2017-03-20T04:13:27.274Z,999.9
2017-03-20T04:14:27.295Z,1000.01
2017-03-20T04:16:27.336Z,999.98
2017-03-20T04:17:27.357Z,1000.02
2017-03-20T04:18:27.378Z,1000.02
2017-03-20T04:19:27.397Z,1000
2017-03-20T04:20:27.419Z,999.91
2017-03-20T04:21:27.445Z,1000.01
2017-03-20T04:22:27.460Z,1000.07
2017-03-20T04:23:27.481Z,1000.01
2017-03-20T04:24:27.503Z,1000.02
2017-03-20T04:25:27.523Z,1000.1
2017-03-20T04:26:27.542Z,1000.14
2017-03-20T04:27:27.564Z,1000.16
2017-03-20T04:28:27.585Z,1000.1
2017-03-20T04:29:27.606Z,1000.14
2017-03-20T04:30:27.626Z,1000.11
2017-03-20T04:32:27.668Z,1000.09
2017-03-20T04:33:27.689Z,1000.05
2017-03-20T04:34:27.708Z,1000.25
2017-03-20T04:35:27.729Z,1000.17
2017-03-20T04:36:27.751Z,1000.21
2017-03-20T04:37:27.770Z,1000.26
2017-03-20T04:38:27.792Z,1000.27
2017-03-20T04:39:27.813Z,1000.25
2017-03-20T04:40:27.834Z,1000.18
2017-03-20T04:41:27.854Z,1000.21
2017-03-20T04:42:27.874Z,1000.2
2017-03-20T04:43:27.895Z,1000.16
2017-03-20T04:44:27.917Z,1000.17
2017-03-20T04:45:27.937Z,1000.18
2017-03-20T04:47:27.980Z,1000.17
2017-03-20T04:48:28.000Z,1000.18
2017-03-20T04:49:28.021Z,1000.21
2017-03-20T04:50:28.042Z,1000.24
2017-03-20T04:51:28.062Z,1000.2
2017-03-20T04:52:28.083Z,1000.2
2017-03-20T04:53:28.104Z,1000.25
2017-03-20T04:54:28.125Z,1000.28
2017-03-20T04:55:28.146Z,1000.27
2017-03-20T04:56:28.166Z,1000.28
2017-03-20T04:57:28.190Z,1000.29
2017-03-20T04:58:28.208Z,1000.28
2017-03-20T04:59:28.228Z,1000.3
2017-03-20T05:00:28.249Z,1000.24
2017-03-20T05:01:28.271Z,1000.36
2017-03-20T05:02:28.291Z,1000.28
2017-03-20T05:03:28.313Z,1000.3
2017-03-20T05:04:28.333Z,1000.31
2017-03-20T05:05:28.353Z,1000.32
2017-03-20T05:06:28.373Z,1000.34
2017-03-20T05:07:28.395Z,1000.37
2017-03-20T05:08:28.450Z,1000.38
2017-03-20T05:09:28.438Z,1000.39
2017-03-20T05:10:28.457Z,1000.48
2017-03-20T05:11:28.478Z,1000.42
2017-03-20T05:12:28.500Z,1000.43
2017-03-20T05:13:28.521Z,1000.41
2017-03-20T05:14:28.541Z,1000.43
2017-03-20T05:15:28.563Z,1000.43
2017-03-20T05:16:28.583Z,1000.48
2017-03-20T05:17:28.603Z,1000.44
2017-03-20T05:19:28.646Z,1000.47
2017-03-20T05:20:28.667Z,1000.49
2017-03-20T05:21:28.687Z,1000.45
2017-03-20T05:22:28.708Z,1000.54
2017-03-20T05:23:28.729Z,1000.53
2017-03-20T05:24:28.753Z,1000.54
2017-03-20T05:25:28.770Z,1000.57
2017-03-20T05:26:28.791Z,1000.58
2017-03-20T05:27:28.813Z,1000.61
2017-03-20T05:28:28.833Z,1000.57
2017-03-20T05:29:28.854Z,1000.55
2017-03-20T05:30:28.875Z,1000.58
2017-03-20T05:31:28.896Z,1000.63
2017-03-20T05:32:28.920Z,1000.61
2017-03-20T05:33:28.937Z,1000.64
2017-03-20T05:35:28.980Z,1000.62
2017-03-20T05:36:29.000Z,1000.68
2017-03-20T05:37:29.026Z,1000.68
2017-03-20T05:38:29.043Z,1000.66
2017-03-20T05:39:29.063Z,1000.69
2017-03-20T05:40:29.084Z,1000.7
2017-03-20T05:41:29.105Z,1000.73
2017-03-20T05:42:29.126Z,1000.72
2017-03-20T05:43:29.147Z,1000.76
2017-03-20T05:44:29.168Z,1000.74
2017-03-20T05:45:29.189Z,1000.8
2017-03-20T05:46:29.210Z,1000.79
2017-03-20T05:47:29.231Z,1000.85
2017-03-20T05:48:29.253Z,1000.82
2017-03-20T05:49:29.278Z,1000.82
2017-03-20T05:51:29.315Z,1000.82
2017-03-20T05:52:29.338Z,1000.84
2017-03-20T05:53:29.358Z,1000.86
2017-03-20T05:54:29.377Z,1000.85
2017-03-20T05:55:29.399Z,1000.85
2017-03-20T05:56:29.420Z,1000.84
2017-03-20T05:57:29.441Z,1000.87
2017-03-20T05:58:29.469Z,1000.81
2017-03-20T05:59:29.484Z,1000.82
2017-03-20T06:00:29.504Z,1000.89
2017-03-20T06:01:29.526Z,1000.86
2017-03-20T06:02:29.546Z,1000.83
2017-03-20T06:03:29.568Z,1000.85
2017-03-20T06:04:29.588Z,1000.89
2017-03-20T06:05:29.609Z,1000.92
2017-03-20T06:07:29.653Z,1000.92
2017-03-20T06:08:29.673Z,1000.97
2017-03-20T06:09:29.694Z,1000.95
2017-03-20T06:10:29.715Z,1000.98
2017-03-20T06:11:29.736Z,1000.98
2017-03-20T06:12:29.756Z,1001.02
2017-03-20T06:13:29.778Z,1001.02
2017-03-20T06:14:29.799Z,1001.05
2017-03-20T06:15:29.820Z,1001.05
2017-03-20T06:16:29.840Z,1000.98
2017-03-20T06:17:29.862Z,1001.03
2017-03-20T06:18:29.884Z,1001.05
2017-03-20T06:19:29.904Z,1001.05
2017-03-20T06:20:29.927Z,1001.07
2017-03-20T06:22:29.969Z,1001.1
2017-03-20T06:23:29.990Z,1001.09
2017-03-20T06:24:30.011Z,1001.06
2017-03-20T06:25:30.034Z,1001.12
2017-03-20T06:26:30.053Z,1001.13
2017-03-20T06:27:30.102Z,1001.13
2017-03-20T06:28:30.100Z,1001.14
2017-03-20T06:29:30.116Z,1001.15
2017-03-20T06:30:30.137Z,1001.12
2017-03-20T06:31:30.160Z,1001.14
2017-03-20T06:32:30.180Z,1001.14
2017-03-20T06:33:30.202Z,1001.15
2017-03-20T06:34:30.221Z,1001.15
2017-03-20T06:35:30.243Z,1001.12
2017-03-20T06:36:30.264Z,1001.06
2017-03-20T06:37:30.286Z,1001.14
2017-03-20T06:38:30.307Z,1001.18
2017-03-20T06:39:30.328Z,1001.14
2017-03-20T06:40:30.348Z,1001.15
2017-03-20T06:41:30.373Z,1001.1
2017-03-20T06:42:30.391Z,1001.11
2017-03-20T06:43:30.412Z,1001.16
2017-03-20T06:44:30.433Z,1001.14
2017-03-20T06:45:30.454Z,1001.16
2017-03-20T06:46:30.477Z,1001.2
2017-03-20T06:47:30.496Z,1001.17
2017-03-20T06:48:30.518Z,1001.13
2017-03-20T06:49:30.538Z,1001.17
2017-03-20T06:50:30.560Z,1001.19
2017-03-20T06:51:30.581Z,1001.14
2017-03-20T06:52:30.602Z,1001.1
2017-03-20T06:54:30.644Z,1001.17
2017-03-20T06:55:30.666Z,1001.16
2017-03-20T06:56:30.686Z,1001.25
2017-03-20T06:57:30.708Z,1001.24
2017-03-20T06:58:30.729Z,1001.23
2017-03-20T06:59:30.750Z,1001.23
2017-03-20T07:00:30.772Z,1001.23
2017-03-20T07:01:30.793Z,1001.24
2017-03-20T07:02:30.814Z,1001.26
2017-03-20T07:03:30.835Z,1001.3
2017-03-20T07:04:30.856Z,1001.25
2017-03-20T07:05:30.877Z,1001.28
2017-03-20T07:06:30.899Z,1001.29
2017-03-20T07:07:30.919Z,1001.28
2017-03-20T07:08:30.941Z,1001.28
2017-03-20T07:10:30.984Z,1001.29
2017-03-20T07:11:31.005Z,1001.24
2017-03-20T07:12:31.026Z,1001.26
2017-03-20T07:13:31.049Z,1001.27
2017-03-20T07:14:31.068Z,1001.24
2017-03-20T07:15:31.090Z,1001.25
2017-03-20T07:16:31.111Z,1001.25
2017-03-20T07:17:31.133Z,1001.29
2017-03-20T07:18:31.154Z,1001.3
2017-03-20T07:19:31.176Z,1001.26
2017-03-20T07:20:31.197Z,1001.29
2017-03-20T07:21:31.218Z,1001.26
2017-03-20T07:22:31.240Z,1001.33
2017-03-20T07:23:31.261Z,1001.29
2017-03-20T07:24:31.283Z,1001.3
2017-03-20T07:26:31.325Z,1001.27
2017-03-20T07:27:31.347Z,1001.3
2017-03-20T07:28:31.367Z,1001.34
2017-03-20T07:29:31.388Z,1001.32
2017-03-20T07:30:31.409Z,1001.35
2017-03-20T07:31:31.435Z,1001.32
2017-03-20T07:32:31.453Z,1001.36
2017-03-20T07:33:31.474Z,1001.35
2017-03-20T07:34:31.495Z,1001.36
2017-03-20T07:35:31.517Z,1001.33
2017-03-20T07:36:31.537Z,1001.31
2017-03-20T07:37:31.558Z,1001.33
2017-03-20T07:38:31.580Z,1001.34
2017-03-20T07:39:31.603Z,1001.35
2017-03-20T07:40:31.623Z,1001.33
2017-03-20T07:42:32.017Z,1001.31
2017-03-20T07:43:31.689Z,1001.29
2017-03-20T07:44:31.708Z,1001.31
2017-03-20T07:45:31.731Z,1001.33
2017-03-20T07:46:31.751Z,1001.28
2017-03-20T07:47:31.772Z,1001.3
2017-03-20T07:48:31.794Z,1001.31
2017-03-20T07:49:31.816Z,1001.3
2017-03-20T07:50:31.836Z,1001.34
2017-03-20T07:51:31.858Z,1001.38
2017-03-20T07:52:31.882Z,1001.36
2017-03-20T07:53:31.902Z,1001.33
2017-03-20T07:54:31.922Z,1001.34
2017-03-20T07:55:31.944Z,1001.37
2017-03-20T07:57:31.987Z,1001.34
2017-03-20T07:58:32.008Z,1001.36
2017-03-20T07:59:32.035Z,1001.33
2017-03-20T08:00:32.051Z,1001.34
2017-03-20T08:01:32.073Z,1001.33
2017-03-20T08:02:32.095Z,1001.35
2017-03-20T08:03:32.115Z,1001.34
2017-03-20T08:04:32.138Z,1001.38
2017-03-20T08:05:32.160Z,1001.37
2017-03-20T08:06:32.179Z,1001.38
2017-03-20T08:07:32.202Z,1001.33
2017-03-20T08:08:32.224Z,1001.34
2017-03-20T08:09:32.245Z,1001.35
2017-03-20T08:10:32.266Z,1001.29
2017-03-20T08:11:32.288Z,1001.26
2017-03-20T08:12:32.311Z,1001.27
2017-03-20T08:13:32.332Z,1001.27
2017-03-20T08:14:32.352Z,1001.29
2017-03-20T08:15:32.373Z,1001.27
2017-03-20T08:16:32.396Z,1001.26
2017-03-20T08:17:32.417Z,1001.26
2017-03-20T08:18:32.640Z,1001.27
2017-03-20T08:19:32.461Z,1001.33
2017-03-20T08:20:32.481Z,1001.34
2017-03-20T08:21:32.503Z,1001.34
2017-03-20T08:22:32.525Z,1001.37
2017-03-20T08:23:32.547Z,1001.33
2017-03-20T08:24:32.567Z,1001.38
2017-03-20T08:25:32.589Z,1001.39
2017-03-20T08:26:32.611Z,1001.38
2017-03-20T08:27:32.632Z,1001.39
2017-03-20T08:29:32.676Z,1001.41
2017-03-20T08:30:32.698Z,1001.41
2017-03-20T08:31:32.718Z,1001.44
2017-03-20T08:32:32.741Z,1001.38
2017-03-20T08:33:32.763Z,1001.38
2017-03-20T08:34:32.785Z,1001.39
2017-03-20T08:35:32.806Z,1001.37
2017-03-20T08:36:32.827Z,1001.43
2017-03-20T08:37:32.850Z,1001.44
2017-03-20T08:38:32.870Z,1001.44
2017-03-20T08:39:32.892Z,1001.49
2017-03-20T08:40:32.914Z,1001.41
2017-03-20T08:41:32.936Z,1001.44
2017-03-20T08:42:32.958Z,1001.46
2017-03-20T08:43:32.980Z,1001.49
2017-03-20T08:45:33.023Z,1001.49
2017-03-20T08:46:33.044Z,1001.55
2017-03-20T08:47:33.067Z,1001.54
2017-03-20T08:48:33.089Z,1001.45
2017-03-20T08:49:33.110Z,1001.52
2017-03-20T08:50:33.132Z,1001.56
2017-03-20T08:51:33.153Z,1001.56
2017-03-20T08:52:33.176Z,1001.54
2017-03-20T08:53:33.198Z,1001.52
2017-03-20T08:54:33.220Z,1001.52
2017-03-20T08:55:33.242Z,1001.57
2017-03-20T08:56:33.265Z,1001.6
2017-03-20T08:57:33.291Z,1001.61
2017-03-20T08:58:33.307Z,1001.56
2017-03-20T08:59:33.330Z,1001.57
2017-03-20T09:01:33.373Z,1001.6
2017-03-20T09:02:33.395Z,1001.54
2017-03-20T09:03:33.420Z,1001.52
2017-03-20T09:04:33.439Z,1001.57
2017-03-20T09:05:33.460Z,1001.56
2017-03-20T09:06:33.483Z,1001.54
2017-03-20T09:07:33.505Z,1001.54
2017-03-20T09:08:33.526Z,1001.56
2017-03-20T09:09:33.549Z,1001.54
2017-03-20T09:10:33.571Z,1001.52
2017-03-20T09:11:33.593Z,1001.6
2017-03-20T09:12:33.617Z,1001.57
2017-03-20T09:13:33.642Z,1001.57
2017-03-20T09:14:33.660Z,1001.59
2017-03-20T09:15:33.681Z,1001.6
2017-03-20T09:17:33.728Z,1001.61
2017-03-20T09:18:33.750Z,1001.61
2017-03-20T09:19:33.771Z,1001.63
2017-03-20T09:20:33.794Z,1001.63
2017-03-20T09:21:33.815Z,1001.62
2017-03-20T09:22:33.838Z,1001.65
2017-03-20T09:23:33.859Z,1001.64
2017-03-20T09:24:33.881Z,1001.68
2017-03-20T09:25:33.905Z,1001.66
2017-03-20T09:26:33.927Z,1001.67
2017-03-20T09:27:33.950Z,1001.66
2017-03-20T09:28:33.972Z,1001.67
2017-03-20T09:29:33.994Z,1001.68
2017-03-20T09:30:34.017Z,1001.68
2017-03-20T09:32:34.063Z,1001.73
2017-03-20T09:33:34.085Z,1001.72
2017-03-20T09:34:34.107Z,1001.68
2017-03-20T09:35:34.129Z,1001.73
2017-03-20T09:36:34.151Z,1001.72
2017-03-20T09:37:34.173Z,1001.73
2017-03-20T09:38:34.196Z,1001.7
2017-03-20T09:39:34.218Z,1001.74
2017-03-20T09:40:34.240Z,1001.7
2017-03-20T09:41:34.263Z,1001.71
2017-03-20T09:42:34.286Z,1001.7
2017-03-20T09:43:34.309Z,1001.7
2017-03-20T09:44:34.330Z,1001.68
2017-03-20T09:45:34.352Z,1001.74
2017-03-20T09:46:34.374Z,1001.71
2017-03-20T09:47:34.397Z,1001.7
2017-03-20T09:48:34.419Z,1001.71
2017-03-20T09:49:34.441Z,1001.66
2017-03-20T09:50:34.463Z,1001.72
2017-03-20T09:51:34.485Z,1001.71
2017-03-20T09:52:34.510Z,1001.69
2017-03-20T09:53:34.529Z,1001.66
2017-03-20T09:54:34.553Z,1001.71
2017-03-20T09:55:34.574Z,1001.65
2017-03-20T09:56:34.596Z,1001.65
2017-03-20T09:57:34.620Z,1001.69
2017-03-20T09:58:34.641Z,1001.66
2017-03-20T09:59:34.663Z,1001.64
2017-03-20T10:00:34.686Z,1001.69
2017-03-20T10:01:34.708Z,1001.68
2017-03-20T10:02:34.729Z,1001.64
2017-03-20T10:04:34.775Z,1001.69
2017-03-20T10:05:34.797Z,1001.64
2017-03-20T10:06:34.818Z,1001.63
2017-03-20T10:07:34.841Z,1001.65
2017-03-20T10:08:34.864Z,1001.67
2017-03-20T10:09:34.887Z,1001.63
2017-03-20T10:10:34.907Z,1001.63
2017-03-20T10:11:34.930Z,1001.69
2017-03-20T10:12:34.953Z,1001.65
2017-03-20T10:13:34.975Z,1001.62
2017-03-20T10:14:34.996Z,1001.67
2017-03-20T10:15:35.019Z,1001.61
2017-03-20T10:16:35.041Z,1001.62
2017-03-20T10:17:35.064Z,1001.66
2017-03-20T10:18:35.086Z,1001.62
2017-03-20T10:20:35.130Z,1001.57
2017-03-20T10:21:35.153Z,1001.56
2017-03-20T10:22:35.176Z,1001.61
2017-03-20T10:23:35.199Z,1001.58
2017-03-20T10:24:35.223Z,1001.58
2017-03-20T10:25:35.242Z,1001.55
2017-03-20T10:26:35.265Z,1001.57
2017-03-20T10:27:35.290Z,1001.54
2017-03-20T10:28:35.310Z,1001.56
2017-03-20T10:29:35.332Z,1001.59
2017-03-20T10:30:35.356Z,1001.55
2017-03-20T10:31:35.376Z,1001.56
2017-03-20T10:32:35.399Z,1001.54
2017-03-20T10:33:35.423Z,1001.6
2017-03-20T10:34:35.445Z,1001.58
2017-03-20T10:36:35.489Z,1001.57
2017-03-20T10:37:35.512Z,1001.59
2017-03-20T10:38:35.536Z,1001.55
2017-03-20T10:39:35.556Z,1001.56
2017-03-20T10:40:35.578Z,1001.56
2017-03-20T10:41:35.600Z,1001.59
2017-03-20T10:42:35.624Z,1001.57
2017-03-20T10:43:35.645Z,1001.49
2017-03-20T10:44:35.668Z,1001.52
2017-03-20T10:45:35.691Z,1001.57
2017-03-20T10:46:35.712Z,1001.56
2017-03-20T10:47:35.735Z,1001.55
2017-03-20T10:48:35.757Z,1001.57
2017-03-20T10:49:35.779Z,1001.54
2017-03-20T10:50:35.801Z,1001.53
2017-03-20T10:52:35.847Z,1001.49
2017-03-20T10:53:35.869Z,1001.49
2017-03-20T10:54:35.890Z,1001.49
2017-03-20T10:55:35.914Z,1001.49
2017-03-20T10:56:35.936Z,1001.47
2017-03-20T10:57:35.958Z,1001.47
2017-03-20T10:58:35.981Z,1001.41
2017-03-20T10:59:36.003Z,1001.47
2017-03-20T11:00:36.026Z,1001.41
2017-03-20T11:01:36.048Z,1001.48
2017-03-20T11:02:36.071Z,1001.51
2017-03-20T11:03:36.094Z,1001.48
2017-03-20T11:04:36.117Z,1001.45
2017-03-20T11:05:36.139Z,1001.48
2017-03-20T11:07:36.185Z,1001.43
2017-03-20T11:09:36.230Z,1001.52
2017-03-20T11:10:36.253Z,1001.52
2017-03-20T11:11:36.276Z,1001.55
2017-03-20T11:12:36.298Z,1001.54
2017-03-20T11:13:36.321Z,1001.58
2017-03-20T11:14:36.344Z,1001.59
2017-03-20T11:15:36.366Z,1001.6
2017-03-20T11:16:36.390Z,1001.57
2017-03-20T11:17:36.415Z,1001.54
2017-03-20T11:18:36.437Z,1001.55
2017-03-20T11:19:36.459Z,1001.56
2017-03-20T11:20:36.482Z,1001.53
2017-03-20T11:21:36.505Z,1001.55
2017-03-20T11:22:36.529Z,1001.57
2017-03-20T11:23:36.551Z,1001.54
2017-03-20T11:24:36.575Z,1001.5
2017-03-20T11:25:36.598Z,1001.53
2017-03-20T11:26:36.620Z,1001.51
2017-03-20T11:27:36.644Z,1001.5
2017-03-20T11:28:36.668Z,1001.54
2017-03-20T11:29:36.691Z,1001.56
2017-03-20T11:30:36.713Z,1001.53
2017-03-20T11:31:36.736Z,1001.52
2017-03-20T11:32:36.763Z,1001.57
2017-03-20T11:33:36.784Z,1001.53
2017-03-20T11:34:36.806Z,1001.51
2017-03-20T11:35:36.829Z,1001.51
2017-03-20T11:36:36.853Z,1001.56
2017-03-20T11:37:36.875Z,1001.56
2017-03-20T11:39:36.922Z,1001.62
2017-03-20T11:40:36.946Z,1001.53
2017-03-20T11:41:36.969Z,1001.52
2017-03-20T11:42:36.993Z,1001.57
2017-03-20T11:43:37.020Z,1001.58
2017-03-20T11:44:37.039Z,1001.56
2017-03-20T11:45:37.063Z,1001.54
2017-03-20T11:46:37.087Z,1001.58
2017-03-20T11:47:37.111Z,1001.57
2017-03-20T11:48:37.134Z,1001.53
2017-03-20T11:49:37.157Z,1001.54
2017-03-20T11:50:37.181Z,1001.52
2017-03-20T11:51:37.204Z,1001.53
2017-03-20T11:52:37.226Z,1001.52
2017-03-20T11:53:37.251Z,1001.55
2017-03-20T11:55:37.298Z,1001.46
2017-03-20T11:56:37.321Z,1001.41
2017-03-20T11:57:37.345Z,1001.48
2017-03-20T11:58:37.369Z,1001.45
2017-03-20T11:59:37.392Z,1001.43
2017-03-20T12:00:37.414Z,1001.44
2017-03-20T12:01:37.438Z,1001.41
2017-03-20T12:02:37.462Z,1001.42
2017-03-20T12:03:37.485Z,1001.41
2017-03-20T12:04:37.509Z,1001.41
2017-03-20T12:05:37.532Z,1001.4
2017-03-20T12:06:37.556Z,1001.38
2017-03-20T12:07:37.579Z,1001.38
2017-03-20T12:08:37.607Z,1001.4
2017-03-20T12:09:37.669Z,1001.4
2017-03-20T12:11:37.671Z,1001.37
2017-03-20T12:12:37.696Z,1001.37
2017-03-20T12:13:37.719Z,1001.34
2017-03-20T12:14:37.742Z,1001.27
2017-03-20T12:15:37.765Z,1001.33
2017-03-20T12:16:37.789Z,1001.31
2017-03-20T12:17:37.813Z,1001.35
2017-03-20T12:18:37.836Z,1001.31
2017-03-20T12:19:37.859Z,1001.33
2017-03-20T12:20:37.883Z,1001.34
2017-03-20T12:21:37.904Z,1001.27
2017-03-20T12:22:37.929Z,1001.28
2017-03-20T12:23:37.951Z,1001.35
2017-03-20T12:24:37.976Z,1001.32
2017-03-20T12:25:38.008Z,1001.23
2017-03-20T12:27:38.050Z,1001.21
2017-03-20T12:28:38.077Z,1001.28
2017-03-20T12:29:38.097Z,1001.23
2017-03-20T12:30:38.114Z,1001.25
2017-03-20T12:31:38.143Z,1001.2
2017-03-20T12:32:38.161Z,1001.2
2017-03-20T12:33:38.187Z,1001.16
2017-03-20T12:34:38.252Z,1001.2
2017-03-20T12:35:38.231Z,1001.18
2017-03-20T12:36:38.253Z,1001.17
2017-03-20T12:37:38.276Z,1001.16
2017-03-20T12:38:38.300Z,1001.17
2017-03-20T12:39:38.328Z,1001.29
2017-03-20T12:40:38.347Z,1001.24
2017-03-20T12:42:38.394Z,1001.23
2017-03-20T12:43:38.417Z,1001.2
2017-03-20T12:44:38.440Z,1001.2
2017-03-20T12:45:38.476Z,1001.25
2017-03-20T12:47:38.521Z,1001.2
2017-03-20T12:48:38.534Z,1001.21
2017-03-20T12:49:38.557Z,1001.21
2017-03-20T12:50:38.591Z,1001.22
2017-03-20T12:51:38.603Z,1001.18
2017-03-20T12:52:38.627Z,1001.16
2017-03-20T12:53:38.652Z,1001.21
2017-03-20T12:54:38.673Z,1001.18
2017-03-20T12:55:38.696Z,1001.14
2017-03-20T12:56:38.720Z,1001.12
2017-03-20T12:57:38.744Z,1001.12
2017-03-20T12:58:38.767Z,1001.07